createdAt,value
2019-04-11T00:00:45.941Z,4.62
2019-04-11T00:01:48.630Z,4.55
2019-04-11T00:02:45.684Z,4.55
2019-04-11T00:03:46.003Z,4.60
2019-04-11T00:04:46.341Z,4.56
2019-04-11T00:05:45.646Z,4.56
2019-04-11T00:06:45.679Z,4.42
2019-04-11T00:07:46.703Z,4.58
2019-04-11T00:08:45.985Z,4.48
2019-04-11T00:09:45.597Z,4.41
2019-04-11T00:10:45.588Z,4.38
2019-04-11T00:11:46.184Z,4.40
2019-04-11T00:12:46.402Z,4.40
2019-04-11T00:13:45.546Z,4.35
2019-04-11T00:14:46.913Z,4.32
2019-04-11T00:15:45.551Z,4.37
2019-04-11T00:16:45.682Z,4.42
2019-04-11T00:17:45.987Z,4.45
2019-04-11T00:18:45.480Z,4.37
2019-04-11T00:19:45.471Z,4.48
2019-04-11T00:20:46.467Z,4.38
2019-04-11T00:21:45.442Z,4.31
2019-04-11T00:22:45.852Z,4.34
2019-04-11T00:23:46.114Z,4.32
2019-04-11T00:24:45.403Z,4.37
2019-04-11T00:25:45.391Z,4.32
2019-04-11T00:26:46.518Z,4.20
2019-04-11T00:27:45.521Z,4.16
2019-04-11T00:28:45.822Z,4.13
2019-04-11T00:29:45.342Z,4.13
2019-04-11T00:30:45.342Z,4.17
2019-04-11T00:31:46.883Z,4.16
2019-04-11T00:32:45.571Z,4.13
2019-04-11T00:33:45.288Z,4.10
2019-04-11T00:34:45.274Z,4.02
2019-04-11T00:35:46.036Z,4.02
2019-04-11T00:36:46.148Z,4.06
2019-04-11T00:37:45.442Z,3.99
2019-04-11T00:38:45.731Z,3.92
2019-04-11T00:39:45.824Z,4.01
2019-04-11T00:40:45.830Z,4.05
2019-04-11T00:41:46.015Z,4.05
2019-04-11T00:42:45.194Z,3.96
2019-04-11T00:43:45.785Z,3.94
2019-04-11T00:44:45.283Z,3.96
2019-04-11T00:45:45.630Z,4.05
2019-04-11T00:46:45.119Z,3.99
2019-04-11T00:47:45.106Z,3.96
2019-04-11T00:48:46.102Z,3.92
2019-04-11T00:49:46.381Z,3.84
2019-04-11T00:50:45.461Z,3.87
2019-04-11T00:51:45.054Z,3.91
2019-04-11T00:52:45.518Z,3.94
2019-04-11T00:53:45.028Z,3.83
2019-04-11T00:54:45.015Z,3.87
2019-04-11T00:55:45.942Z,3.87
2019-04-11T00:56:44.989Z,3.81
2019-04-11T00:57:45.302Z,3.81
2019-04-11T00:58:45.675Z,3.77
2019-04-11T00:59:44.950Z,3.86
2019-04-11T01:00:45.082Z,3.74
2019-04-11T01:01:45.031Z,3.86
2019-04-11T01:02:45.457Z,3.77
2019-04-11T01:03:45.435Z,3.73
2019-04-11T01:04:45.360Z,3.70
2019-04-11T01:05:45.709Z,3.66
2019-04-11T01:06:44.859Z,3.66
2019-04-11T01:07:45.021Z,3.63
2019-04-11T01:08:46.013Z,3.63
2019-04-11T01:09:44.820Z,3.69
2019-04-11T01:10:45.641Z,3.68
2019-04-11T01:11:45.780Z,3.60
2019-04-11T01:12:44.890Z,3.59
2019-04-11T01:13:50.845Z,3.62
2019-04-11T01:14:44.774Z,3.63
2019-04-11T01:15:44.908Z,3.60
2019-04-11T01:16:45.068Z,3.55
2019-04-11T01:17:45.431Z,3.58
2019-04-11T01:18:44.701Z,3.60
2019-04-11T01:19:44.769Z,3.41
2019-04-11T01:20:44.675Z,3.45
2019-04-11T01:21:44.661Z,3.47
2019-04-11T01:22:44.648Z,3.47
2019-04-11T01:23:44.915Z,3.60
2019-04-11T01:24:44.623Z,3.53
2019-04-11T01:25:44.609Z,3.45
2019-04-11T01:26:45.515Z,3.51
2019-04-11T01:27:44.825Z,3.45
2019-04-11T01:28:44.949Z,3.59
2019-04-11T01:29:44.555Z,3.58
2019-04-11T01:30:45.116Z,3.58
2019-04-11T01:31:44.528Z,3.59
2019-04-11T01:32:44.514Z,3.58
2019-04-11T01:33:44.501Z,3.45
2019-04-11T01:34:44.650Z,3.58
2019-04-11T01:35:45.670Z,3.47
2019-04-11T01:36:45.061Z,3.40
2019-04-11T01:37:44.448Z,3.42
2019-04-11T01:38:44.433Z,3.42
2019-04-11T01:39:45.332Z,3.41
2019-04-11T01:40:45.575Z,3.42
2019-04-11T01:41:44.798Z,3.42
2019-04-11T01:42:44.379Z,3.40
2019-04-11T01:43:55.342Z,3.32
2019-04-11T01:44:45.840Z,3.40
2019-04-11T01:45:45.348Z,3.37
2019-04-11T01:46:44.488Z,3.34
2019-04-11T01:47:44.745Z,3.40
2019-04-11T01:48:44.299Z,3.32
2019-04-11T01:49:44.291Z,3.31
2019-04-11T01:50:45.262Z,3.31
2019-04-11T01:51:45.501Z,3.28
2019-04-11T01:52:44.601Z,3.25
2019-04-11T01:53:44.281Z,3.29
2019-04-11T01:54:44.217Z,3.21
2019-04-11T01:55:45.030Z,3.22
2019-04-11T01:56:45.339Z,3.19
2019-04-11T01:57:44.659Z,3.19
2019-04-11T01:58:44.213Z,3.22
2019-04-11T01:59:44.149Z,3.23
2019-04-11T02:00:44.163Z,3.13
2019-04-11T02:01:45.150Z,3.10
2019-04-11T02:02:44.412Z,3.05
2019-04-11T02:03:44.095Z,3.07
2019-04-11T02:04:44.082Z,2.98
2019-04-11T02:05:45.278Z,2.97
2019-04-11T02:06:44.054Z,3.00
2019-04-11T02:07:44.882Z,2.98
2019-04-11T02:08:44.028Z,2.98
2019-04-11T02:09:44.243Z,2.95
2019-04-11T02:10:45.239Z,2.97
2019-04-11T02:11:43.987Z,2.98
2019-04-11T02:12:43.974Z,3.00
2019-04-11T02:13:43.963Z,2.98
2019-04-11T02:14:43.969Z,2.97
2019-04-11T02:15:44.199Z,3.00
2019-04-11T02:16:43.919Z,3.00
2019-04-11T02:17:43.906Z,3.00
2019-04-11T02:18:43.892Z,2.97
2019-04-11T02:19:44.765Z,2.93
2019-04-11T02:20:43.869Z,2.80
2019-04-11T02:21:44.201Z,2.89
2019-04-11T02:22:43.839Z,2.80
2019-04-11T02:23:43.825Z,2.79
2019-04-11T02:24:43.844Z,2.85
2019-04-11T02:25:44.847Z,2.85
2019-04-11T02:26:45.770Z,2.79
2019-04-11T02:27:44.274Z,2.82
2019-04-11T02:28:44.626Z,2.77
2019-04-11T02:29:44.765Z,2.75
2019-04-11T02:30:45.939Z,2.71
2019-04-11T02:31:44.568Z,2.72
2019-04-11T02:32:45.457Z,2.71
2019-04-11T02:33:43.691Z,2.82
2019-04-11T02:34:43.938Z,2.69
2019-04-11T02:35:46.079Z,2.72
2019-04-11T02:36:44.930Z,2.79
2019-04-11T02:37:44.416Z,2.75
2019-04-11T02:38:44.050Z,2.74
2019-04-11T02:39:43.609Z,2.64
2019-04-11T02:40:45.294Z,2.75
2019-04-11T02:41:44.534Z,2.69
2019-04-11T02:42:45.494Z,2.74
2019-04-11T02:43:44.474Z,2.79
2019-04-11T02:44:59.838Z,2.75
2019-04-11T02:45:56.944Z,2.68
2019-04-11T02:46:53.157Z,2.71
2019-04-11T02:47:46.576Z,2.65
2019-04-11T02:48:44.939Z,2.65
2019-04-11T02:49:43.835Z,2.51
2019-04-11T02:50:43.580Z,2.68
2019-04-11T02:51:44.871Z,2.53
2019-04-11T02:52:44.476Z,2.46
2019-04-11T02:53:44.978Z,2.57
2019-04-11T02:54:45.044Z,2.47
2019-04-11T02:55:43.967Z,2.39
2019-04-11T02:56:45.081Z,2.36
2019-04-11T02:57:43.372Z,2.44
2019-04-11T02:58:44.202Z,2.43
2019-04-11T02:59:45.254Z,2.31
2019-04-11T03:00:44.947Z,2.26
2019-04-11T03:01:44.003Z,2.33
2019-04-11T03:02:44.448Z,2.39
2019-04-11T03:03:43.284Z,2.35
2019-04-11T03:04:43.957Z,2.35
2019-04-11T03:05:44.100Z,2.32
2019-04-11T03:06:43.928Z,2.32
2019-04-11T03:07:43.237Z,2.36
2019-04-11T03:08:43.750Z,2.25
2019-04-11T03:09:43.947Z,2.25
2019-04-11T03:10:45.196Z,2.25
2019-04-11T03:11:44.989Z,2.25
2019-04-11T03:12:43.850Z,2.22
2019-04-11T03:13:44.416Z,2.18
2019-04-11T03:15:00.745Z,2.17
2019-04-11T03:16:03.520Z,2.15
2019-04-11T03:16:56.375Z,2.06
2019-04-11T03:17:45.689Z,2.07
2019-04-11T03:19:02.417Z,2.06
2019-04-11T03:19:57.838Z,2.06
2019-04-11T03:20:49.731Z,2.02
2019-04-11T03:21:46.428Z,2.00
2019-04-11T03:22:44.730Z,2.06
2019-04-11T03:23:44.081Z,2.00
2019-04-11T03:24:43.559Z,2.02
2019-04-11T03:25:44.731Z,2.04
2019-04-11T03:26:43.596Z,2.07
2019-04-11T03:27:43.512Z,2.14
2019-04-11T03:28:49.038Z,2.07
2019-04-11T03:29:43.198Z,2.14
2019-04-11T03:31:06.919Z,2.08
2019-04-11T03:32:17.547Z,2.08
2019-04-11T03:33:52.484Z,2.11
2019-04-11T03:34:33.448Z,2.00
2019-04-11T03:35:51.906Z,1.99
2019-04-11T03:37:21.088Z,2.04
2019-04-11T03:38:08.588Z,1.97
2019-04-11T03:39:08.939Z,1.88
2019-04-11T03:39:59.289Z,1.92
2019-04-11T03:41:00.523Z,1.99
2019-04-11T03:41:59.393Z,1.81
2019-04-11T03:42:59.860Z,1.87
2019-04-11T03:43:57.065Z,1.94
2019-04-11T03:44:47.909Z,1.80
2019-04-11T03:46:01.501Z,1.92
2019-04-11T03:47:01.380Z,1.92
2019-04-11T03:48:00.922Z,1.88
2019-04-11T03:48:55.876Z,1.88
2019-04-11T03:49:51.407Z,1.91
2019-04-11T03:50:44.539Z,1.94
2019-04-11T03:51:43.627Z,1.78
2019-04-11T03:52:43.111Z,1.77
2019-04-11T03:53:43.176Z,1.84
2019-04-11T03:54:42.792Z,1.84
2019-04-11T03:55:43.389Z,1.89
2019-04-11T03:56:43.296Z,1.74
2019-04-11T03:57:42.535Z,1.68
2019-04-11T03:58:43.818Z,1.73
2019-04-11T03:59:43.789Z,1.76
2019-04-11T04:00:44.385Z,1.77
2019-04-11T04:01:44.247Z,1.74
2019-04-11T04:02:42.466Z,1.77
2019-04-11T04:03:42.664Z,1.70
2019-04-11T04:04:43.602Z,1.74
2019-04-11T04:05:44.415Z,1.73
2019-04-11T04:06:43.390Z,1.73
2019-04-11T04:07:42.400Z,1.71
2019-04-11T04:08:42.457Z,1.63
2019-04-11T04:09:43.818Z,1.70
2019-04-11T04:10:43.620Z,1.71
2019-04-11T04:11:42.799Z,1.70
2019-04-11T04:12:43.317Z,1.60
2019-04-11T04:13:42.834Z,1.67
2019-04-11T04:14:44.527Z,1.66
2019-04-11T04:15:55.879Z,1.55
2019-04-11T04:16:47.831Z,1.58
2019-04-11T04:17:43.462Z,1.53
2019-04-11T04:18:43.752Z,1.56
2019-04-11T04:19:43.766Z,1.60
2019-04-11T04:20:43.801Z,1.56
2019-04-11T04:21:42.922Z,1.56
2019-04-11T04:22:44.009Z,1.56
2019-04-11T04:23:43.244Z,1.55
2019-04-11T04:24:43.241Z,1.55
2019-04-11T04:25:44.974Z,1.44
2019-04-11T04:26:43.142Z,1.44
2019-04-11T04:27:42.938Z,1.44
2019-04-11T04:28:42.944Z,1.50
2019-04-11T04:29:46.744Z,1.41
2019-04-11T04:30:43.282Z,1.45
2019-04-11T04:31:42.517Z,1.45
2019-04-11T04:32:42.849Z,1.44
2019-04-11T04:33:42.991Z,1.49
2019-04-11T04:34:42.249Z,1.44
2019-04-11T04:35:42.923Z,1.48
2019-04-11T04:36:42.371Z,1.50
2019-04-11T04:37:43.330Z,1.49
2019-04-11T04:38:41.962Z,1.48
2019-04-11T04:39:43.469Z,1.41
2019-04-11T04:40:55.772Z,1.37
2019-04-11T04:41:49.503Z,1.38
2019-04-11T04:42:47.699Z,1.34
2019-04-11T04:43:43.737Z,1.41
2019-04-11T04:44:42.921Z,1.35
2019-04-11T04:45:57.906Z,1.34
2019-04-11T04:46:55.823Z,1.34
2019-04-11T04:47:47.790Z,1.30
2019-04-11T04:48:43.314Z,1.30
2019-04-11T04:49:43.496Z,1.23
2019-04-11T04:50:42.228Z,1.26
2019-04-11T04:51:43.514Z,1.22
2019-04-11T04:52:42.808Z,1.26
2019-04-11T04:53:43.029Z,1.26
2019-04-11T04:54:41.729Z,1.23
2019-04-11T04:55:43.409Z,1.28
2019-04-11T04:56:43.127Z,1.16
2019-04-11T04:57:42.956Z,1.20
2019-04-11T04:58:42.085Z,1.12
2019-04-11T04:59:42.563Z,1.26
2019-04-11T05:00:41.637Z,1.28
2019-04-11T05:01:43.770Z,1.28
2019-04-11T05:02:42.182Z,1.32
2019-04-11T05:03:42.392Z,1.19
2019-04-11T05:04:41.579Z,1.13
2019-04-11T05:05:42.457Z,1.14
2019-04-11T05:06:44.782Z,1.23
2019-04-11T05:07:44.092Z,1.26
2019-04-11T05:08:42.978Z,1.23
2019-04-11T05:09:42.631Z,1.24
2019-04-11T05:10:41.492Z,1.24
2019-04-11T05:11:42.390Z,1.20
2019-04-11T05:12:41.849Z,1.28
2019-04-11T05:13:44.691Z,1.34
2019-04-11T05:14:41.435Z,1.20
2019-04-11T05:15:42.156Z,1.24
2019-04-11T05:16:41.776Z,1.34
2019-04-11T05:17:43.577Z,1.24
2019-04-11T05:18:42.007Z,1.41
2019-04-11T05:19:42.391Z,1.32
2019-04-11T05:20:41.348Z,1.35
2019-04-11T05:21:41.457Z,1.23
2019-04-11T05:22:41.604Z,1.34
2019-04-11T05:23:41.767Z,1.32
2019-04-11T05:24:41.293Z,1.38
2019-04-11T05:25:42.471Z,1.42
2019-04-11T05:26:41.789Z,1.48
2019-04-11T05:27:41.919Z,1.50
2019-04-11T05:28:41.235Z,1.53
2019-04-11T05:29:41.763Z,1.62
2019-04-11T05:30:41.906Z,1.56
2019-04-11T05:31:41.197Z,1.67
2019-04-11T05:32:41.763Z,1.60
2019-04-11T05:33:41.317Z,1.73
2019-04-11T05:34:41.422Z,1.76
2019-04-11T05:35:41.696Z,1.74
2019-04-11T05:36:41.122Z,1.78
2019-04-11T05:37:41.111Z,1.80
2019-04-11T05:38:42.142Z,1.84
2019-04-11T05:39:42.362Z,1.92
2019-04-11T05:40:41.951Z,1.99
2019-04-11T05:41:44.776Z,2.02
2019-04-11T05:42:41.701Z,2.04
2019-04-11T05:43:41.735Z,2.10
2019-04-11T05:44:41.763Z,2.14
2019-04-11T05:45:42.187Z,2.29
2019-04-11T05:46:49.927Z,2.17
2019-04-11T05:47:40.967Z,2.24
2019-04-11T05:48:41.171Z,2.32
2019-04-11T05:49:42.456Z,2.36
2019-04-11T05:50:46.321Z,2.43
2019-04-11T05:51:45.650Z,2.50
2019-04-11T05:52:42.008Z,2.56
2019-04-11T05:53:41.663Z,2.54
2019-04-11T05:54:41.823Z,2.67
2019-04-11T05:55:43.230Z,2.68
2019-04-11T05:56:41.618Z,2.68
2019-04-11T05:57:41.478Z,2.72
2019-04-11T05:58:45.118Z,2.80
2019-04-11T05:59:41.193Z,2.75
2019-04-11T06:00:41.009Z,2.79
2019-04-11T06:01:40.780Z,2.74
2019-04-11T06:02:41.641Z,2.79
2019-04-11T06:03:43.249Z,2.77
2019-04-11T06:04:40.746Z,2.89
2019-04-11T06:05:40.876Z,2.89
2019-04-11T06:06:41.803Z,2.85
2019-04-11T06:07:43.594Z,2.92
2019-04-11T06:08:41.903Z,3.04
2019-04-11T06:09:41.664Z,3.05
2019-04-11T06:10:43.515Z,3.04
2019-04-11T06:11:41.167Z,3.08
2019-04-11T06:12:41.392Z,3.11
2019-04-11T06:13:40.713Z,3.22
2019-04-11T06:14:41.644Z,3.16
2019-04-11T06:15:42.820Z,3.23
2019-04-11T06:16:46.240Z,3.21
2019-04-11T06:17:40.772Z,3.32
2019-04-11T06:18:43.859Z,3.36
2019-04-11T06:19:41.566Z,3.41
2019-04-11T06:20:40.532Z,3.42
2019-04-11T06:21:40.515Z,3.47
2019-04-11T06:22:40.502Z,3.56
2019-04-11T06:23:40.488Z,3.62
2019-04-11T06:24:40.658Z,3.63
2019-04-11T06:25:43.557Z,3.73
2019-04-11T06:26:40.813Z,3.76
2019-04-11T06:27:42.516Z,3.81
2019-04-11T06:28:40.426Z,3.94
2019-04-11T06:29:41.046Z,3.98
2019-04-11T06:30:40.401Z,3.98
2019-04-11T06:31:40.453Z,4.01
2019-04-11T06:32:40.375Z,3.98
2019-04-11T06:33:40.720Z,4.05
2019-04-11T06:34:41.483Z,4.08
2019-04-11T06:35:40.338Z,4.19
2019-04-11T06:36:41.265Z,4.30
2019-04-11T06:37:41.252Z,4.35
2019-04-11T06:38:40.753Z,4.31
2019-04-11T06:39:40.288Z,4.44
2019-04-11T06:40:40.282Z,4.44
2019-04-11T06:41:40.915Z,4.56
2019-04-11T06:42:40.253Z,4.55
2019-04-11T06:43:40.485Z,4.49
2019-04-11T06:44:40.225Z,4.62
2019-04-11T06:45:40.214Z,4.77
2019-04-11T06:46:49.618Z,4.77
2019-04-11T06:47:40.994Z,4.78
2019-04-11T06:48:40.222Z,4.87
2019-04-11T06:49:40.164Z,4.78
2019-04-11T06:50:40.152Z,4.87
2019-04-11T06:51:40.139Z,4.92
2019-04-11T06:52:41.218Z,4.90
2019-04-11T06:53:40.116Z,4.94
2019-04-11T06:54:41.116Z,5.00
2019-04-11T06:55:40.099Z,5.00
2019-04-11T06:56:41.156Z,4.97
2019-04-11T06:57:40.419Z,5.07
2019-04-11T06:58:40.054Z,5.08
2019-04-11T06:59:40.710Z,5.10
2019-04-11T07:00:41.057Z,5.35
2019-04-11T07:01:40.520Z,5.30
2019-04-11T07:02:41.055Z,5.33
2019-04-11T07:03:40.611Z,5.33
2019-04-11T07:04:40.001Z,5.48
2019-04-11T07:05:40.622Z,5.53
2019-04-11T07:06:40.002Z,5.57
2019-04-11T07:07:40.920Z,5.64
2019-04-11T07:08:40.597Z,5.61
2019-04-11T07:09:39.936Z,5.87
2019-04-11T07:10:39.911Z,5.79
2019-04-11T07:11:40.492Z,5.86
2019-04-11T07:12:40.750Z,5.98
2019-04-11T07:13:39.877Z,5.93
2019-04-11T07:14:39.916Z,6.16
2019-04-11T07:15:39.895Z,6.19
2019-04-11T07:16:40.430Z,6.28
2019-04-11T07:17:40.424Z,6.41
2019-04-11T07:18:40.033Z,6.46
2019-04-11T07:19:39.808Z,6.59
2019-04-11T07:20:39.798Z,6.81
2019-04-11T07:21:39.814Z,6.78
2019-04-11T07:22:40.868Z,6.89
2019-04-11T07:23:40.535Z,7.03
2019-04-11T07:24:39.757Z,7.07
2019-04-11T07:25:39.744Z,7.21
2019-04-11T07:26:39.733Z,7.25
2019-04-11T07:27:40.871Z,7.38
2019-04-11T07:28:39.714Z,7.47
2019-04-11T07:29:40.092Z,7.51
2019-04-11T07:30:39.718Z,7.54
2019-04-11T07:31:39.872Z,7.58
2019-04-11T07:32:40.617Z,7.56
2019-04-11T07:33:40.849Z,7.57
2019-04-11T07:34:40.198Z,7.69
2019-04-11T07:35:39.878Z,7.88
2019-04-11T07:36:40.589Z,7.85
2019-04-11T07:37:40.670Z,8.08
2019-04-11T07:38:39.638Z,8.00
2019-04-11T07:39:42.332Z,8.01
2019-04-11T07:40:41.204Z,7.97
2019-04-11T07:41:41.233Z,8.01
2019-04-11T07:42:40.977Z,8.16
2019-04-11T07:43:39.609Z,8.15
2019-04-11T07:44:40.755Z,8.16
2019-04-11T07:45:40.688Z,8.33
2019-04-11T07:46:40.687Z,8.42
2019-04-11T07:47:39.591Z,8.52
2019-04-11T07:48:40.330Z,8.61
2019-04-11T07:49:40.772Z,8.63
2019-04-11T07:50:39.953Z,8.78
2019-04-11T07:51:40.684Z,8.97
2019-04-11T07:52:39.575Z,9.11
2019-04-11T07:53:39.570Z,9.29
2019-04-11T07:54:39.566Z,9.37
2019-04-11T07:55:39.563Z,9.64
2019-04-11T07:56:39.725Z,9.66
2019-04-11T07:57:40.357Z,9.80
2019-04-11T07:58:39.845Z,9.86
2019-04-11T07:59:39.764Z,9.83
2019-04-11T08:00:45.685Z,9.89
2019-04-11T08:01:40.384Z,9.94
2019-04-11T08:02:39.892Z,9.94
2019-04-11T08:03:40.029Z,10.10
2019-04-11T08:04:40.744Z,10.02
2019-04-11T08:05:40.872Z,10.19
2019-04-11T08:06:39.537Z,10.28
2019-04-11T08:07:40.409Z,10.13
2019-04-11T08:08:39.535Z,10.19
2019-04-11T08:09:39.648Z,10.51
2019-04-11T08:10:39.532Z,10.78
2019-04-11T08:11:40.077Z,11.04
2019-04-11T08:12:39.531Z,11.18
2019-04-11T08:13:39.537Z,11.29
2019-04-11T08:14:40.358Z,11.30
2019-04-11T08:15:39.932Z,11.27
2019-04-11T08:16:39.529Z,10.81
2019-04-11T08:17:42.502Z,10.79
2019-04-11T08:18:39.526Z,10.78
2019-04-11T08:19:40.656Z,10.96
2019-04-11T08:20:39.608Z,11.15
2019-04-11T08:21:39.527Z,11.15
2019-04-11T08:22:39.527Z,11.36
2019-04-11T08:23:40.131Z,11.33
2019-04-11T08:24:40.528Z,11.17
2019-04-11T08:25:39.835Z,11.19
2019-04-11T08:26:39.528Z,11.32
2019-04-11T08:27:52.123Z,11.45
2019-04-11T08:28:40.704Z,11.51
2019-04-11T08:29:39.529Z,11.50
2019-04-11T08:30:40.120Z,11.60
2019-04-11T08:31:40.268Z,11.57
2019-04-11T08:32:40.044Z,11.60
2019-04-11T08:33:40.517Z,11.62
2019-04-11T08:34:39.698Z,11.66
2019-04-11T08:35:40.224Z,11.90
2019-04-11T08:36:40.107Z,12.21
2019-04-11T08:37:40.012Z,12.27
2019-04-11T08:38:40.492Z,12.17
2019-04-11T08:39:39.563Z,12.13
2019-04-11T08:40:39.538Z,12.12
2019-04-11T08:41:39.934Z,12.32
2019-04-11T08:42:40.710Z,12.29
2019-04-11T08:43:39.541Z,12.35
2019-04-11T08:44:39.697Z,12.20
2019-04-11T08:45:40.335Z,12.32
2019-04-11T08:46:39.546Z,12.53
2019-04-11T08:47:46.813Z,12.75
2019-04-11T08:48:39.553Z,12.91
2019-04-11T08:49:39.781Z,12.93
2019-04-11T08:50:40.605Z,12.87
2019-04-11T08:51:39.567Z,12.86
2019-04-11T08:52:40.299Z,12.82
2019-04-11T08:53:40.672Z,12.86
2019-04-11T08:54:39.742Z,12.67
2019-04-11T08:55:48.559Z,12.57
2019-04-11T08:56:39.566Z,12.60
2019-04-11T08:57:40.930Z,12.85
2019-04-11T08:58:40.610Z,12.86
2019-04-11T08:59:39.802Z,12.85
2019-04-11T09:00:40.199Z,13.12
2019-04-11T09:01:40.272Z,13.38
2019-04-11T09:02:40.793Z,13.52
2019-04-11T09:03:39.939Z,13.57
2019-04-11T09:04:40.014Z,13.79
2019-04-11T09:05:40.814Z,13.78
2019-04-11T09:06:40.878Z,13.67
2019-04-11T09:07:39.597Z,13.44
2019-04-11T09:08:40.613Z,13.54
2019-04-11T09:09:39.781Z,13.70
2019-04-11T09:10:40.062Z,13.41
2019-04-11T09:11:40.687Z,13.19
2019-04-11T09:12:39.614Z,13.19
2019-04-11T09:13:39.785Z,13.28
2019-04-11T09:14:40.049Z,13.08
2019-04-11T09:15:39.625Z,13.16
2019-04-11T09:16:39.731Z,13.19
2019-04-11T09:17:41.775Z,13.09
2019-04-11T09:18:39.635Z,13.15
2019-04-11T09:19:39.639Z,13.12
2019-04-11T09:20:40.186Z,13.28
2019-04-11T09:21:40.407Z,13.22
2019-04-11T09:22:39.650Z,13.12
2019-04-11T09:23:39.769Z,13.05
2019-04-11T09:24:40.883Z,13.12
2019-04-11T09:25:39.662Z,13.13
2019-04-11T09:26:40.990Z,13.22
2019-04-11T09:27:40.537Z,13.25
2019-04-11T09:28:39.828Z,13.27
2019-04-11T09:29:39.933Z,12.98
2019-04-11T09:30:40.878Z,13.01
2019-04-11T09:31:39.682Z,13.01
2019-04-11T09:32:40.360Z,13.18
2019-04-11T09:33:39.780Z,13.15
2019-04-11T09:34:39.762Z,13.28
2019-04-11T09:35:39.696Z,13.33
2019-04-11T09:36:40.826Z,13.46
2019-04-11T09:37:40.080Z,13.53
2019-04-11T09:38:40.232Z,13.67
2019-04-11T09:39:39.711Z,13.57
2019-04-11T09:40:39.714Z,13.67
2019-04-11T09:41:40.672Z,13.68
2019-04-11T09:42:39.721Z,13.78
2019-04-11T09:43:40.143Z,13.44
2019-04-11T09:44:39.730Z,13.52
2019-04-11T09:45:39.733Z,13.28
2019-04-11T09:46:40.751Z,13.30
2019-04-11T09:47:40.409Z,13.12
2019-04-11T09:48:40.084Z,13.19
2019-04-11T09:49:39.747Z,13.50
2019-04-11T09:50:40.591Z,13.68
2019-04-11T09:51:40.300Z,13.56
2019-04-11T09:52:40.879Z,13.16
2019-04-11T09:53:40.902Z,12.87
2019-04-11T09:54:40.065Z,12.57
2019-04-11T09:55:39.761Z,12.20
2019-04-11T09:56:39.763Z,12.00
2019-04-11T09:57:39.763Z,11.99
2019-04-11T09:58:39.962Z,11.95
2019-04-11T09:59:39.798Z,11.81
2019-04-11T10:00:40.913Z,11.51
2019-04-11T10:01:40.786Z,11.44
2019-04-11T10:02:39.794Z,11.48
2019-04-11T10:03:40.870Z,11.44
2019-04-11T10:04:39.747Z,11.41
2019-04-11T10:05:40.646Z,11.40
2019-04-11T10:06:40.905Z,11.23
2019-04-11T10:07:39.735Z,10.99
2019-04-11T10:08:39.884Z,10.86
2019-04-11T10:09:39.984Z,10.93
2019-04-11T10:10:41.897Z,10.97
2019-04-11T10:11:40.126Z,11.15
2019-04-11T10:12:40.516Z,11.27
2019-04-11T10:13:40.703Z,11.44
2019-04-11T10:14:39.843Z,11.43
2019-04-11T10:15:39.808Z,11.41
2019-04-11T10:16:40.133Z,11.57
2019-04-11T10:17:40.243Z,11.57
2019-04-11T10:18:41.144Z,11.54
2019-04-11T10:19:40.205Z,11.60
2019-04-11T10:20:40.479Z,11.55
2019-04-11T10:21:39.668Z,11.73
2019-04-11T10:22:40.372Z,11.90
2019-04-11T10:23:40.823Z,12.06
2019-04-11T10:24:40.774Z,11.87
2019-04-11T10:25:39.646Z,11.83
2019-04-11T10:26:40.365Z,12.13
2019-04-11T10:27:40.629Z,12.55
2019-04-11T10:28:39.632Z,12.83
2019-04-11T10:29:39.846Z,12.86
2019-04-11T10:30:39.905Z,13.12
2019-04-11T10:31:39.623Z,13.53
2019-04-11T10:32:39.619Z,13.86
2019-04-11T10:33:39.616Z,13.99
2019-04-11T10:34:39.661Z,14.25
2019-04-11T10:35:40.686Z,14.35
2019-04-11T10:36:39.612Z,14.55
2019-04-11T10:37:40.166Z,14.53
2019-04-11T10:38:40.425Z,14.54
2019-04-11T10:39:39.675Z,14.63
2019-04-11T10:40:39.924Z,14.89
2019-04-11T10:41:40.050Z,15.06
2019-04-11T10:42:39.611Z,15.15
2019-04-11T10:43:40.404Z,15.43
2019-04-11T10:44:40.336Z,15.59
2019-04-11T10:45:39.616Z,15.54
2019-04-11T10:46:39.728Z,15.55
2019-04-11T10:47:40.779Z,15.55
2019-04-11T10:48:42.533Z,15.58
2019-04-11T10:49:39.627Z,15.04
2019-04-11T10:50:40.319Z,14.48
2019-04-11T10:51:40.775Z,14.25
2019-04-11T10:52:39.629Z,14.03
2019-04-11T10:53:39.628Z,13.81
2019-04-11T10:54:40.740Z,13.57
2019-04-11T10:55:39.887Z,13.50
2019-04-11T10:56:39.633Z,13.39
2019-04-11T10:57:40.378Z,13.70
2019-04-11T10:58:40.637Z,13.78
2019-04-11T10:59:40.696Z,14.25
2019-04-11T11:00:39.772Z,14.60
2019-04-11T11:01:40.188Z,14.94
2019-04-11T11:02:39.793Z,15.21
2019-04-11T11:03:39.622Z,15.59
2019-04-11T11:04:40.892Z,15.58
2019-04-11T11:05:40.140Z,15.52
2019-04-11T11:06:39.898Z,15.61
2019-04-11T11:07:40.568Z,15.44
2019-04-11T11:08:39.848Z,15.54
2019-04-11T11:09:39.627Z,15.31
2019-04-11T11:10:39.763Z,15.37
2019-04-11T11:11:40.765Z,15.37
2019-04-11T11:12:39.633Z,15.19
2019-04-11T11:13:40.714Z,15.24
2019-04-11T11:14:39.645Z,15.64
2019-04-11T11:15:39.902Z,15.64
2019-04-11T11:16:43.794Z,15.44
2019-04-11T11:18:00.979Z,15.29
2019-04-11T11:19:02.872Z,15.44
2019-04-11T11:19:51.807Z,15.67
2019-04-11T11:20:45.478Z,15.84
2019-04-11T11:21:39.948Z,16.09
2019-04-11T11:22:41.526Z,16.26
2019-04-11T11:23:40.709Z,16.41
2019-04-11T11:24:40.621Z,16.46
2019-04-11T11:25:44.438Z,16.10
2019-04-11T11:26:41.034Z,16.21
2019-04-11T11:27:39.684Z,16.42
2019-04-11T11:28:39.689Z,16.60
2019-04-11T11:29:40.417Z,16.74
2019-04-11T11:30:39.963Z,16.64
2019-04-11T11:31:40.828Z,16.43
2019-04-11T11:32:39.710Z,16.15
2019-04-11T11:33:40.590Z,16.33
2019-04-11T11:34:41.001Z,16.68
2019-04-11T11:35:40.967Z,16.60
2019-04-11T11:36:39.730Z,16.21
2019-04-11T11:37:39.818Z,16.09
2019-04-11T11:38:39.753Z,16.09
2019-04-11T11:39:39.745Z,16.13
2019-04-11T11:40:41.663Z,16.64
2019-04-11T11:41:40.597Z,16.21
2019-04-11T11:42:39.764Z,16.38
2019-04-11T11:43:39.764Z,16.39
2019-04-11T11:44:39.770Z,16.09
2019-04-11T11:45:39.778Z,15.75
2019-04-11T11:46:40.418Z,15.21
2019-04-11T11:47:41.454Z,14.81
2019-04-11T11:48:39.814Z,14.63
2019-04-11T11:49:48.794Z,14.77
2019-04-11T11:50:39.793Z,15.15
2019-04-11T11:51:39.796Z,15.02
2019-04-11T11:52:39.801Z,15.15
2019-04-11T11:53:40.570Z,15.27
2019-04-11T11:54:39.867Z,15.55
2019-04-11T11:55:41.158Z,15.58
2019-04-11T11:56:40.273Z,15.72
2019-04-11T11:57:39.818Z,15.82
2019-04-11T11:58:42.348Z,15.77
2019-04-11T11:59:40.689Z,16.04
2019-04-11T12:00:40.752Z,16.56
2019-04-11T12:01:42.272Z,16.93
2019-04-11T12:02:39.841Z,17.01
2019-04-11T12:03:40.738Z,17.23
2019-04-11T12:04:40.509Z,17.54
2019-04-11T12:05:45.591Z,17.36
2019-04-11T12:06:40.884Z,17.41
2019-04-11T12:07:40.948Z,17.09
2019-04-11T12:08:45.334Z,16.46
2019-04-11T12:09:39.863Z,15.95
2019-04-11T12:10:39.868Z,15.82
2019-04-11T12:11:40.030Z,15.49
2019-04-11T12:12:40.059Z,15.40
2019-04-11T12:13:40.755Z,15.24
2019-04-11T12:14:43.183Z,15.39
2019-04-11T12:15:39.875Z,15.82
2019-04-11T12:16:39.876Z,16.01
2019-04-11T12:17:40.559Z,16.10
2019-04-11T12:18:44.920Z,16.10
2019-04-11T12:19:47.628Z,16.04
2019-04-11T12:20:44.451Z,16.12
2019-04-11T12:21:40.972Z,16.13
2019-04-11T12:22:40.211Z,16.66
2019-04-11T12:23:49.512Z,17.20
2019-04-11T12:24:40.529Z,16.99
2019-04-11T12:25:40.922Z,16.86
2019-04-11T12:26:40.830Z,17.19
2019-04-11T12:27:40.115Z,17.42
2019-04-11T12:28:39.899Z,17.59
2019-04-11T12:29:41.251Z,17.87
2019-04-11T12:30:39.946Z,17.97
2019-04-11T12:31:39.905Z,17.92
2019-04-11T12:32:40.940Z,17.59
2019-04-11T12:33:39.912Z,17.78
2019-04-11T12:34:41.005Z,17.63
2019-04-11T12:35:40.141Z,17.24
2019-04-11T12:36:46.622Z,16.51
2019-04-11T12:37:41.245Z,16.10
2019-04-11T12:38:39.921Z,15.42
2019-04-11T12:39:39.922Z,15.24
2019-04-11T12:40:39.921Z,15.22
2019-04-11T12:41:39.921Z,15.80
2019-04-11T12:42:39.922Z,16.33
2019-04-11T12:43:39.920Z,16.41
2019-04-11T12:44:39.921Z,16.86
2019-04-11T12:45:39.922Z,16.74
2019-04-11T12:46:39.920Z,16.50
2019-04-11T12:47:39.920Z,16.71
2019-04-11T12:48:39.921Z,17.01
2019-04-11T12:49:39.921Z,16.65
2019-04-11T12:50:39.919Z,16.39
2019-04-11T12:51:39.922Z,16.41
2019-04-11T12:52:39.920Z,16.65
2019-04-11T12:53:39.920Z,16.87
2019-04-11T12:54:39.919Z,17.36
2019-04-11T12:55:39.921Z,17.63
2019-04-11T12:56:40.669Z,17.94
2019-04-11T12:57:39.919Z,17.85
2019-04-11T12:58:39.918Z,18.15
2019-04-11T12:59:39.920Z,18.52
2019-04-11T13:00:39.918Z,18.98
2019-04-11T13:01:39.921Z,18.75
2019-04-11T13:02:39.918Z,18.07
2019-04-11T13:03:39.918Z,17.72
2019-04-11T13:04:39.917Z,17.94
2019-04-11T13:05:39.918Z,17.79
2019-04-11T13:06:39.915Z,18.05
2019-04-11T13:07:39.916Z,18.58
2019-04-11T13:08:39.918Z,18.98
2019-04-11T13:09:39.914Z,19.47